Time;durP1;ratioP1;P1;durP2;ratioP2;P2;SDS_P1;SDS_P2;PMS_P1;PMS_P2;Temp;Humidity;BMP_temperature;BMP_pressure;BME280_temperature;BME280_humidity;BME280_pressure;Samples;Min_cycle;Max_cycle;Signal;HPM_P1;HPM_P2
2023/05/31 00:01:15;;;;;;;2.30;1.30;;;;;;;;;;5112633;28;20447;-70
2023/05/31 00:03:44;;;;;;;1.50;0.70;;;;;;;;;;5112901;28;20476;-70
2023/05/31 00:06:11;;;;;;;1.70;0.80;;;;;;;;;;5112266;28;20804;-70
2023/05/31 00:08:38;;;;;;;4.00;1.20;;;;;;;;;;5112377;28;20938;-70
2023/05/31 00:11:05;;;;;;;3.97;1.10;;;;;;;;;;5113051;28;20444;-70
2023/05/31 00:13:32;;;;;;;1.87;1.10;;;;;;;;;;5111783;28;20954;-69
2023/05/31 00:15:59;;;;;;;1.67;0.93;;;;;;;;;;5112459;28;20783;-70
2023/05/31 00:18:27;;;;;;;1.63;1.00;;;;;;;;;;5103159;28;20451;-70
2023/05/31 00:20:55;;;;;;;1.60;0.90;;;;;;;;;;5112846;28;20452;-69
2023/05/31 00:23:22;;;;;;;2.03;1.10;;;;;;;;;;5111798;28;20506;-69
2023/05/31 00:25:49;;;;;;;1.60;1.00;;;;;;;;;;5112156;28;20443;-69
2023/05/31 00:28:16;;;;;;;1.90;0.97;;;;;;;;;;5111850;28;20450;-69
2023/05/31 00:30:43;;;;;;;2.50;1.10;;;;;;;;;;5112498;28;20439;-69
2023/05/31 00:33:11;;;;;;;2.03;1.03;;;;;;;;;;5111867;28;20454;-70
2023/05/31 00:35:38;;;;;;;2.90;1.37;;;;;;;;;;5112381;28;20455;-69
2023/05/31 00:38:07;;;;;;;2.60;1.57;;;;;;;;;;5111748;28;20463;-69
2023/05/31 00:40:34;;;;;;;3.03;1.60;;;;;;;;;;5111435;28;20451;-69
2023/05/31 00:43:01;;;;;;;2.27;1.53;;;;;;;;;;5105274;28;20838;-69
2023/05/31 00:45:29;;;;;;;3.00;1.00;;;;;;;;;;5106980;28;20447;-69
2023/05/31 00:47:57;;;;;;;2.43;1.47;;;;;;;;;;5111613;28;20849;-69
2023/05/31 00:50:24;;;;;;;1.53;1.03;;;;;;;;;;5111448;28;20456;-69
2023/05/31 00:52:53;;;;;;;4.70;1.23;;;;;;;;;;5112039;28;20444;-69
2023/05/31 00:55:22;;;;;;;1.50;1.10;;;;;;;;;;5111498;28;20902;-69
2023/05/31 00:57:49;;;;;;;1.80;0.83;;;;;;;;;;5110997;28;20448;-69
2023/05/31 01:00:16;;;;;;;3.73;1.53;;;;;;;;;;5111561;28;20490;-70
2023/05/31 01:02:43;;;;;;;1.53;0.90;;;;;;;;;;5111405;28;20970;-69
2023/05/31 01:05:10;;;;;;;2.80;1.00;;;;;;;;;;5111187;28;20454;-70
2023/05/31 01:07:38;;;;;;;2.40;1.27;;;;;;;;;;5111250;28;20462;-69
2023/05/31 01:10:06;;;;;;;1.93;1.33;;;;;;;;;;5111742;28;20475;-69
2023/05/31 01:12:39;;;;;;;6.60;2.20;;;;;;;;;;5111125;28;20455;-69
2023/05/31 01:15:10;;;;;;;2.17;1.10;;;;;;;;;;5111607;28;20451;-69
2023/05/31 01:17:41;;;;;;;1.93;1.30;;;;;;;;;;5110882;28;20500;-69
2023/05/31 01:20:10;;;;;;;1.60;1.00;;;;;;;;;;5111996;28;20450;-69
2023/05/31 01:22:50;;;;;;;1.57;0.87;;;;;;;;;;5111198;28;20479;-70
2023/05/31 01:25:28;;;;;;;1.90;1.00;;;;;;;;;;5110901;28;20471;-70
2023/05/31 01:27:57;;;;;;;1.90;1.20;;;;;;;;;;5111032;28;20907;-70
2023/05/31 01:30:26;;;;;;;1.57;0.90;;;;;;;;;;5098477;28;20448;-69
2023/05/31 01:32:53;;;;;;;2.33;0.97;;;;;;;;;;5110039;28;20463;-70
2023/05/31 01:35:21;;;;;;;2.50;1.50;;;;;;;;;;5110404;28;20551;-70
2023/05/31 01:37:48;;;;;;;3.80;1.13;;;;;;;;;;5110855;28;20531;-70
2023/05/31 01:40:15;;;;;;;1.53;1.27;;;;;;;;;;5110630;28;20440;-70
2023/05/31 01:42:44;;;;;;;2.70;1.07;;;;;;;;;;5111186;28;20478;-70
2023/05/31 01:45:13;;;;;;;2.00;1.20;;;;;;;;;;5110882;28;20440;-70
2023/05/31 01:47:42;;;;;;;1.80;0.90;;;;;;;;;;5110720;28;20471;-70
2023/05/31 01:50:09;;;;;;;1.20;0.80;;;;;;;;;;5111415;28;20535;-70
2023/05/31 01:52:36;;;;;;;1.93;1.20;;;;;;;;;;5111481;28;20443;-69
2023/05/31 01:55:03;;;;;;;3.87;1.07;;;;;;;;;;5111170;28;20795;-70
2023/05/31 01:57:31;;;;;;;2.30;1.10;;;;;;;;;;5110070;28;20448;-69
2023/05/31 01:59:59;;;;;;;2.03;1.10;;;;;;;;;;5110736;28;20943;-70
2023/05/31 02:02:28;;;;;;;1.90;1.00;;;;;;;;;;5110024;28;20915;-70
2023/05/31 02:05:08;;;;;;;2.37;1.10;;;;;;;;;;5110710;28;20448;-70
2023/05/31 02:07:36;;;;;;;5.30;1.50;;;;;;;;;;5110752;28;20813;-69
2023/05/31 02:10:03;;;;;;;1.97;1.00;;;;;;;;;;5110742;28;20480;-69
2023/05/31 02:12:31;;;;;;;1.70;1.10;;;;;;;;;;5110291;28;20452;-71
2023/05/31 02:14:58;;;;;;;2.67;1.40;;;;;;;;;;5111121;28;20530;-68
2023/05/31 02:17:25;;;;;;;2.03;1.50;;;;;;;;;;5109894;28;20550;-71
2023/05/31 02:19:54;;;;;;;2.70;1.37;;;;;;;;;;5111177;28;20454;-71
2023/05/31 02:22:21;;;;;;;1.37;0.80;;;;;;;;;;5113638;28;20440;-69
2023/05/31 02:24:48;;;;;;;3.00;1.47;;;;;;;;;;5114935;28;20493;-70
2023/05/31 02:27:16;;;;;;;1.63;0.80;;;;;;;;;;5113704;28;20785;-70
2023/05/31 02:29:43;;;;;;;2.10;1.20;;;;;;;;;;5114735;28;20450;-70
2023/05/31 02:32:10;;;;;;;1.57;0.90;;;;;;;;;;5114263;28;20448;-72
2023/05/31 02:34:37;;;;;;;1.70;0.90;;;;;;;;;;5114721;28;20941;-70
2023/05/31 02:37:06;;;;;;;1.20;0.80;;;;;;;;;;5114466;28;20459;-69
2023/05/31 02:39:33;;;;;;;1.87;1.03;;;;;;;;;;5113891;28;20922;-72
2023/05/31 02:42:00;;;;;;;2.77;1.10;;;;;;;;;;5114660;28;20475;-72
2023/05/31 02:44:27;;;;;;;1.90;1.23;;;;;;;;;;5114145;28;20475;-72
2023/05/31 02:46:55;;;;;;;2.10;1.00;;;;;;;;;;5114075;28;20451;-72
2023/05/31 02:49:22;;;;;;;2.07;1.00;;;;;;;;;;5113585;28;20462;-72
2023/05/31 02:51:49;;;;;;;2.67;1.03;;;;;;;;;;5114599;28;20452;-72
2023/05/31 02:54:17;;;;;;;2.63;1.00;;;;;;;;;;5114027;28;20448;-72
2023/05/31 02:56:45;;;;;;;3.00;1.23;;;;;;;;;;5113711;28;20513;-72
2023/05/31 02:59:12;;;;;;;1.77;1.07;;;;;;;;;;5113860;28;20451;-72
2023/05/31 03:01:39;;;;;;;1.47;0.80;;;;;;;;;;5114511;28;20452;-72
2023/05/31 03:04:06;;;;;;;2.73;1.33;;;;;;;;;;5114364;28;20528;-69
2023/05/31 03:06:33;;;;;;;1.40;0.83;;;;;;;;;;5113221;28;20452;-71
2023/05/31 03:09:00;;;;;;;4.93;1.30;;;;;;;;;;5113634;28;21004;-71
2023/05/31 03:11:29;;;;;;;2.57;1.67;;;;;;;;;;5113622;28;20810;-70
2023/05/31 03:13:56;;;;;;;2.83;1.57;;;;;;;;;;5114005;28;20497;-70
2023/05/31 03:16:24;;;;;;;1.70;1.07;;;;;;;;;;5112660;28;20444;-70
2023/05/31 03:18:52;;;;;;;1.97;1.10;;;;;;;;;;5114088;28;20456;-70
2023/05/31 03:21:19;;;;;;;2.67;1.00;;;;;;;;;;5113524;28;20459;-70
2023/05/31 03:23:46;;;;;;;1.90;1.37;;;;;;;;;;5113955;28;20835;-71
2023/05/31 03:26:13;;;;;;;6.30;1.23;;;;;;;;;;5113200;28;20462;-70
2023/05/31 03:28:42;;;;;;;1.53;1.10;;;;;;;;;;5114073;28;20455;-71
2023/05/31 03:31:09;;;;;;;1.80;1.10;;;;;;;;;;5113859;28;20451;-69
2023/05/31 03:33:36;;;;;;;3.57;1.50;;;;;;;;;;5112791;28;20447;-69
2023/05/31 03:36:04;;;;;;;3.00;1.07;;;;;;;;;;5113496;28;20443;-70
2023/05/31 03:38:31;;;;;;;2.63;1.20;;;;;;;;;;5113212;28;20459;-70
2023/05/31 03:40:58;;;;;;;2.40;1.00;;;;;;;;;;5113702;28;20447;-70
2023/05/31 03:43:25;;;;;;;1.93;1.30;;;;;;;;;;5112939;28;20841;-70
2023/05/31 03:45:54;;;;;;;2.43;1.37;;;;;;;;;;5113240;28;20456;-70
2023/05/31 03:48:21;;;;;;;2.70;0.90;;;;;;;;;;5112428;28;20451;-70
2023/05/31 03:50:48;;;;;;;2.37;1.07;;;;;;;;;;5113202;28;20443;-70
2023/05/31 03:53:15;;;;;;;2.97;1.10;;;;;;;;;;5113015;28;20811;-70
2023/05/31 03:55:42;;;;;;;1.80;1.10;;;;;;;;;;5112841;28;20447;-70
2023/05/31 03:58:10;;;;;;;1.60;0.77;;;;;;;;;;5113155;28;20963;-72
2023/05/31 04:00:37;;;;;;;2.33;1.20;;;;;;;;;;5113461;28;20444;-69
2023/05/31 04:03:06;;;;;;;1.37;0.80;;;;;;;;;;5113174;28;20458;-71
2023/05/31 04:05:33;;;;;;;3.17;1.23;;;;;;;;;;5112260;28;20566;-70
2023/05/31 04:08:01;;;;;;;1.57;1.10;;;;;;;;;;5112826;28;20895;-70
2023/05/31 04:10:29;;;;;;;3.07;1.30;;;;;;;;;;5112128;28;20472;-69
2023/05/31 04:12:56;;;;;;;2.47;1.10;;;;;;;;;;5112702;28;20451;-70
2023/05/31 04:15:23;;;;;;;1.63;0.90;;;;;;;;;;5111901;28;20819;-70
2023/05/31 04:17:50;;;;;;;2.27;1.20;;;;;;;;;;5112606;28;20447;-69
2023/05/31 04:20:19;;;;;;;2.00;1.43;;;;;;;;;;5112279;28;20443;-72
2023/05/31 04:22:46;;;;;;;2.57;1.30;;;;;;;;;;5112819;28;20456;-70
2023/05/31 04:25:13;;;;;;;3.43;2.10;;;;;;;;;;5112312;28;20479;-70
2023/05/31 04:27:41;;;;;;;1.47;1.00;;;;;;;;;;5112596;28;20447;-70
2023/05/31 04:30:08;;;;;;;3.67;1.43;;;;;;;;;;5112551;28;20452;-70
2023/05/31 04:32:36;;;;;;;1.83;1.20;;;;;;;;;;5112754;28;20800;-70
2023/05/31 04:35:04;;;;;;;2.50;1.43;;;;;;;;;;5112653;28;20459;-69
2023/05/31 04:37:32;;;;;;;2.47;1.47;;;;;;;;;;5111682;28;20789;-70
2023/05/31 04:39:59;;;;;;;2.90;1.07;;;;;;;;;;5112042;28;20909;-70
2023/05/31 04:42:27;;;;;;;1.83;1.63;;;;;;;;;;5111701;28;20443;-70
2023/05/31 04:44:57;;;;;;;2.30;1.40;;;;;;;;;;5111852;28;20471;-70
2023/05/31 04:47:27;;;;;;;2.07;1.10;;;;;;;;;;5111231;28;20443;-72
2023/05/31 04:49:56;;;;;;;3.40;1.40;;;;;;;;;;5112099;28;20970;-70
2023/05/31 04:52:26;;;;;;;2.13;1.30;;;;;;;;;;5110905;28;20447;-70
2023/05/31 04:54:54;;;;;;;2.23;1.30;;;;;;;;;;5112459;28;20536;-70
2023/05/31 04:57:22;;;;;;;2.97;1.00;;;19.40;1.00;;;;;;5111264;28;20815;-70
2023/05/31 04:59:49;;;;;;;1.77;1.00;;;;;;;;;;5112345;28;20454;-71
2023/05/31 05:02:16;;;;;;;3.10;1.20;;;;;;;;;;5111102;28;20925;-71
2023/05/31 05:04:43;;;;;;;2.03;1.20;;;;;;;;;;5111849;28;20990;-70
2023/05/31 05:07:10;;;;;;;2.50;1.40;;;;;;;;;;5111281;28;20448;-69
2023/05/31 05:09:37;;;;;;;1.63;1.10;;;;;;;;;;5110765;28;20743;-71
2023/05/31 05:12:07;;;;;;;1.60;1.00;;;;;;;;;;5109373;28;20447;-71
2023/05/31 05:14:34;;;;;;;2.30;1.10;;;;;;;;;;5105759;28;20530;-70
2023/05/31 05:17:01;;;;;;;1.60;1.17;;;;;;;;;;5104181;28;20444;-70
2023/05/31 05:19:29;;;;;;;2.50;1.33;;;;;;;;;;5105629;28;20466;-68
2023/05/31 05:21:56;;;;;;;4.73;1.20;;;;;;;;;;5111747;28;20454;-69
2023/05/31 05:24:23;;;;;;;1.43;0.67;;;;;;;;;;5109263;28;20482;-67
2023/05/31 05:26:50;;;;;;;1.13;0.70;;;;;;;;;;5109877;28;20459;-67
2023/05/31 05:29:18;;;;;;;1.43;0.83;;;;;;;;;;5108310;28;20808;-67
2023/05/31 05:31:47;;;;;;;2.27;1.20;;;;;;;;;;5104988;28;20448;-67
2023/05/31 05:34:14;;;;;;;2.10;1.33;;;;;;;;;;5110684;28;20455;-69
2023/05/31 05:36:41;;;;;;;2.77;1.30;;;;;;;;;;5110290;28;20450;-69
2023/05/31 05:39:09;;;;;;;2.60;1.10;;;;;;;;;;5111556;28;20451;-69
2023/05/31 05:41:36;;;;;;;1.87;1.43;;;;;;;;;;5110279;28;20450;-66
2023/05/31 05:44:03;;;;;;;2.50;1.40;;;;;;;;;;5109010;28;20806;-67
2023/05/31 05:46:31;;;;;;;1.57;0.80;;;;;;;;;;5109078;28;20450;-67
2023/05/31 05:48:58;;;;;;;2.37;1.27;;;;;;;;;;5110432;28;20451;-68
2023/05/31 05:51:26;;;;;;;1.77;1.13;;;;;;;;;;5102167;28;20454;-68
2023/05/31 05:53:53;;;;;;;1.60;0.77;;;;;;;;;;5110625;28;20455;-68
2023/05/31 05:56:20;;;;;;;2.13;1.03;;;;;;;;;;5110959;28;20451;-69
2023/05/31 05:58:48;;;;;;;1.63;0.73;;;;;;;;;;5113940;28;20512;-69
2023/05/31 06:01:18;;;;;;;1.20;0.63;;;;;;;;;;5119039;27;20444;-69
2023/05/31 06:03:46;;;;;;;2.60;1.20;;;;;;;;;;5114279;28;20938;-69
2023/05/31 06:06:14;;;;;;;1.83;1.00;;;;;;;;;;5114601;28;20450;-68
2023/05/31 06:08:41;;;;;;;3.77;1.50;;;;;;;;;;5115421;28;20854;-69
2023/05/31 06:11:08;;;;;;;1.57;0.80;;;;;;;;;;5120063;27;20450;-69
2023/05/31 06:13:35;;;;;;;1.53;0.90;;;;;;;;;;5113890;28;20448;-69
2023/05/31 06:16:03;;;;;;;1.90;1.20;;;;;;;;;;5112973;28;20455;-69
2023/05/31 06:18:30;;;;;;;2.60;1.30;;;;;;;;;;5114133;28;20459;-69
2023/05/31 06:20:59;;;;;;;1.40;0.90;;;;;;;;;;5114463;28;20450;-68
2023/05/31 06:23:26;;;;;;;1.80;0.93;;;;;;;;;;5113058;28;20462;-69
2023/05/31 06:25:53;;;;;;;2.17;1.20;;;;;;;;;;5113741;28;20472;-71
2023/05/31 06:28:20;;;;;;;2.33;1.00;;;;;;;;;;5113962;28;20463;-71
2023/05/31 06:30:47;;;;;;;2.63;1.70;;;;;;;;;;5114836;28;20462;-70
2023/05/31 06:33:15;;;;;;;1.83;1.10;;;;;;;;;;5114158;28;20444;-69
2023/05/31 06:35:42;;;;;;;1.43;1.00;;;;;;;;;;5114361;27;20457;-69
2023/05/31 06:38:15;;;;;;;2.00;1.20;;;;;;;;;;5114673;28;20535;-69
2023/05/31 06:40:43;;;;;;;2.07;1.03;;;;;;;;;;5115325;27;20439;-68
2023/05/31 06:43:10;;;;;;;3.00;1.10;;;;;;;;;;5114183;28;20451;-69
2023/05/31 06:45:41;;;;;;;1.83;1.13;;;;;;;;;;5113210;28;20563;-67
2023/05/31 06:48:09;;;;;;;4.67;1.30;;;;;;;;;;5113388;28;20459;-68
2023/05/31 06:50:36;;;;;;;2.43;1.30;;;;;;;;;;5113724;28;20496;-67
2023/05/31 06:53:03;;;;;;;2.30;1.20;;;;;;;;;;5113726;28;20791;-70
2023/05/31 06:55:32;;;;;;;1.53;0.97;;;;;;;;;;5112727;28;20555;-69
2023/05/31 06:57:59;;;;;;;1.80;0.90;;;;;;;;;;5114218;27;20526;-69
2023/05/31 07:00:26;;;;;;;1.80;1.20;;;;;;;;;;5112190;28;20459;-70
2023/05/31 07:02:53;;;;;;;1.60;0.80;;;;;;;;;;5114189;27;21036;-71
2023/05/31 07:05:20;;;;;;;2.40;1.23;;;;;;;;;;5113329;28;20490;-70
2023/05/31 07:07:48;;;;;;;1.27;0.90;;;;;;;;;;5114495;27;20443;-73
2023/05/31 07:10:15;;;;;;;2.57;1.20;;;;;;;;;;5123418;27;20467;-70
2023/05/31 07:12:44;;;;;;;2.03;1.27;;;;;;;;;;5114176;28;20804;-71
2023/05/31 07:15:11;;;;;;;2.40;1.00;;;;;;;;;;5113038;28;20451;-71
2023/05/31 07:17:39;;;;;;;3.77;1.40;;;;;;;;;;5113754;28;20436;-70
2023/05/31 07:20:07;;;;;;;1.70;1.00;;;;;;;;;;5113962;28;20455;-71
2023/05/31 07:22:34;;;;;;;2.07;0.97;;;;;;;;;;5113474;27;20883;-71
2023/05/31 07:25:03;;;;;;;2.33;1.30;;;;;;;;;;5113010;28;20478;-71
2023/05/31 07:27:30;;;;;;;1.93;1.03;;;;;;;;;;5112878;28;20506;-69
2023/05/31 07:29:59;;;;;;;2.60;1.13;;;;;;;;;;5114145;27;20439;-72
2023/05/31 07:32:26;;;;;;;2.40;1.20;;;;;;;;;;5117887;27;20440;-71
2023/05/31 07:34:53;;;;;;;2.43;1.30;;;;;;;;;;5113496;28;20447;-72
2023/05/31 07:37:20;;;;;;;1.70;0.80;;;;;;;;;;5112476;28;20447;-69
2023/05/31 07:39:47;;;;;;;2.23;0.90;;;;;;;;;;5113649;28;20440;-70
2023/05/31 07:42:14;;;;;;;2.07;1.00;;;;;;;;;;5113107;28;20782;-69
2023/05/31 07:44:42;;;;;;;2.43;1.20;;;;;;;;;;5114883;27;20481;-69
2023/05/31 07:47:10;;;;;;;1.37;0.60;;;;;;;;;;5112889;28;20939;-71
2023/05/31 07:49:37;;;;;;;1.90;1.20;;;;;;;;;;5113869;28;20443;-70
2023/05/31 07:52:04;;;;;;;1.93;1.30;;;;;;;;;;5113631;28;20452;-70
2023/05/31 07:54:32;;;;;;;1.80;1.03;;;;;;;;;;5112916;28;20780;-70
2023/05/31 07:56:59;;;;;;;1.50;1.10;;;;;;;;;;5112670;28;20543;-71
2023/05/31 07:59:26;;;;;;;1.97;1.03;;;;;;;;;;5112799;27;20947;-70
2023/05/31 08:01:53;;;;;;;4.03;1.40;;;;;;;;;;5112724;28;20447;-70
2023/05/31 08:04:22;;;;;;;1.63;1.30;;;;;;;;;;5112610;28;20815;-71
2023/05/31 08:06:49;;;;;;;1.73;1.07;;;;;;;;;;5112239;28;20451;-70
2023/05/31 08:09:17;;;;;;;1.30;1.00;;;;;;;;;;5112421;28;20475;-72
2023/05/31 08:11:44;;;;;;;2.10;1.40;;;;;;;;;;5112010;28;20793;-72
2023/05/31 08:14:12;;;;;;;1.50;1.10;;;;;;;;;;5112457;28;20542;-73
2023/05/31 08:16:39;;;;;;;2.27;1.00;;;;;;;;;;5112517;28;20451;-71
2023/05/31 08:19:06;;;;;;;2.63;1.60;;;;;;;;;;5111710;28;20505;-72
2023/05/31 08:21:36;;;;;;;2.10;1.60;;;15.40;46.00;;;;;;5111515;28;20447;-72
2023/05/31 08:24:02;;;;;;;1.57;0.83;;;20.50;1.00;;;;;;5112178;28;20455;-72
2023/05/31 08:26:29;;;;;;;2.47;1.20;;;20.40;1.00;;;;;;5111131;28;20728;-73
2023/05/31 08:28:56;;;;;;;1.60;1.13;;;20.40;1.00;;;;;;5112692;28;20474;-73
2023/05/31 08:31:23;;;;;;;2.20;1.37;;;20.50;1.00;;;;;;5110927;28;20955;-71
2023/05/31 08:33:54;;;;;;;1.50;1.00;;;20.60;1.00;;;;;;5112425;28;20478;-71
2023/05/31 08:36:21;;;;;;;2.00;0.90;;;20.80;1.00;;;;;;5110458;28;20942;-72
2023/05/31 08:38:50;;;;;;;1.70;1.20;;;20.70;1.00;;;;;;5112374;28;20444;-72
2023/05/31 08:41:18;;;;;;;1.87;1.20;;;20.70;1.00;;;;;;5111993;28;20440;-70
2023/05/31 08:43:45;;;;;;;1.43;0.90;;;20.80;1.00;;;;;;5112462;28;20463;-72
2023/05/31 08:46:15;;;;;;;3.73;1.70;;;20.90;1.00;;;;;;5111309;28;21058;-72
2023/05/31 08:48:46;;;;;;;1.60;1.30;;;21.00;1.00;;;;;;5112441;28;20456;-72
2023/05/31 08:51:15;;;;;;;2.43;1.30;;;21.10;1.00;;;;;;5111991;28;20440;-71
2023/05/31 08:53:43;;;;;;;3.20;1.43;;;21.10;1.00;;;;;;5111849;28;20492;-70
2023/05/31 08:56:12;;;;;;;3.00;1.50;;;21.10;1.00;;;;;;5111255;28;20455;-72
2023/05/31 08:58:41;;;;;;;2.23;1.40;;;21.10;1.00;;;;;;5112058;28;20450;-71
2023/05/31 09:01:08;;;;;;;3.27;1.37;;;21.30;1.00;;;;;;5106017;28;20444;-70
2023/05/31 09:03:37;;;;;;;3.67;1.43;;;21.50;1.00;;;;;;5110706;28;20812;-72
2023/05/31 09:06:03;;;;;;;1.70;1.40;;;21.50;1.00;;;;;;5111122;28;20471;-72
2023/05/31 09:08:33;;;;;;;2.93;1.40;;;21.40;1.00;;;;;;5111512;27;20444;-68
2023/05/31 09:11:00;;;;;;;4.10;1.67;;;21.50;1.00;;;;;;5103377;28;20440;-71
2023/05/31 09:13:29;;;;;;;2.27;1.40;;;21.50;1.00;;;;;;5111256;28;20444;-70
2023/05/31 09:15:56;;;;;;;3.80;1.30;;;21.60;1.00;;;;;;5111329;27;20447;-70
2023/05/31 09:18:25;;;;;;;3.40;1.77;;;21.60;1.00;;;;;;5110976;28;20542;-70
2023/05/31 09:20:55;;;;;;;2.73;1.20;;;21.70;1.00;;;;;;5111501;28;20444;-72
2023/05/31 09:23:22;;;;;;;1.83;1.13;;;21.80;1.00;;;;;;5111170;28;20447;-69
2023/05/31 09:25:51;;;;;;;2.80;1.53;;;21.90;1.00;;;;;;5110986;28;20489;-71
2023/05/31 09:28:18;;;;;;;2.37;1.10;;;22.00;1.00;;;;;;5110821;28;20450;-71
2023/05/31 09:30:47;;;;;;;2.07;1.10;;;21.90;1.00;;;;;;5096965;28;20449;-71
2023/05/31 09:33:15;;;;;;;2.27;1.73;;;22.00;1.00;;;;;;5119626;27;20447;-72
2023/05/31 09:35:56;;;;;;;3.33;1.70;;;22.10;1.00;;;;;;5117054;27;20478;-72
2023/05/31 09:38:32;;;;;;;1.50;1.03;;;22.30;1.00;;;;;;5111113;28;20432;-70
2023/05/31 09:41:12;;;;;;;1.80;1.20;;;22.60;1.00;;;;;;5111513;28;20446;-70
2023/05/31 09:43:40;;;;;;;1.70;1.10;;;22.40;1.00;;;;;;5111274;28;20465;-71
2023/05/31 09:46:12;;;;;;;2.40;1.30;;;22.40;1.00;;;;;;5110881;28;21030;-70
2023/05/31 09:48:39;;;;;;;1.60;1.00;;;22.60;1.00;;;;;;5111588;28;20455;-67
2023/05/31 09:51:08;;;;;;;2.10;1.07;;;22.70;1.00;;;;;;5111268;28;20562;-70
2023/05/31 09:53:39;;;;;;;2.27;1.20;;;22.80;1.00;;;;;;5104260;28;20981;-71
2023/05/31 09:56:10;;;;;;;2.17;1.33;;;22.80;1.00;;;;;;5105743;28;20451;-69
2023/05/31 09:58:37;;;;;;;1.70;1.10;;;22.80;1.00;;;;;;5110496;28;20451;-69
2023/05/31 10:01:04;;;;;;;2.13;1.10;;;22.90;1.00;;;;;;5110192;28;20526;-69
2023/05/31 10:03:33;;;;;;;2.20;1.30;;;22.90;1.00;;;;;;5110268;28;20447;-67
2023/05/31 10:06:02;;;;;;;2.03;1.00;;;23.00;1.00;;;;;;5110693;28;20536;-67
2023/05/31 10:08:31;;;;;;;2.03;1.10;;;22.90;1.00;;;;;;5109757;28;20948;-67
2023/05/31 10:10:59;;;;;;;1.70;1.00;;;23.10;1.00;;;;;;5111108;28;20475;-65
2023/05/31 10:13:28;;;;;;;2.03;1.13;;;23.20;1.00;;;;;;5109482;28;20852;-66
2023/05/31 10:15:58;;;;;;;2.43;1.33;;;23.20;1.00;;;;;;5109941;28;20459;-66
2023/05/31 10:18:31;;;;;;;2.47;1.10;;;23.10;1.00;;;;;;5109419;28;20462;-66
2023/05/31 10:21:02;;;;;;;1.50;1.07;;;;;;;;;;5110059;28;20454;-65
2023/05/31 10:23:29;;;;;;;1.77;1.23;;;;;;;;;;5109812;28;20435;-65
2023/05/31 10:26:00;;;;;;;2.63;1.40;;;;;;;;;;5109614;28;20489;-66
2023/05/31 10:28:29;;;;;;;2.10;1.30;;;;;;;;;;5107878;28;20442;-66
2023/05/31 10:30:56;;;;;;;1.83;1.10;;;;;;;;;;5110656;28;20444;-67
2023/05/31 10:33:24;;;;;;;1.70;1.07;;;;;;;;;;5109482;28;20501;-67
2023/05/31 10:35:51;;;;;;;2.90;1.70;;;;;;;;;;5110144;28;20455;-67
2023/05/31 10:38:22;;;;;;;2.10;1.23;;;;;;;;;;5110213;28;20447;-67
2023/05/31 10:40:51;;;;;;;3.40;1.17;;;;;;;;;;5108135;28;20455;-67
2023/05/31 10:43:20;;;;;;;2.00;1.57;;;;;;;;;;5112857;28;20470;-68
2023/05/31 10:45:48;;;;;;;2.20;1.27;;;;;;;;;;5111122;28;20475;-67
2023/05/31 10:48:21;;;;;;;1.30;1.00;;;;;;;;;;5119343;27;20451;-70
2023/05/31 10:50:54;;;;;;;2.03;1.13;;;;;;;;;;5114528;27;20784;-68
2023/05/31 10:53:23;;;;;;;1.60;1.20;;;;;;;;;;5113374;28;20950;-68
2023/05/31 10:55:50;;;;;;;2.00;1.20;;;;;;;;;;5117548;27;20458;-68
2023/05/31 10:58:27;;;;;;;1.67;0.77;;;;;;;;;;5112962;28;20823;-67
2023/05/31 11:00:55;;;;;;;2.30;0.93;;;23.30;1.00;;;;;;5103417;28;20443;-68
2023/05/31 11:03:23;;;;;;;2.00;1.10;;;24.30;1.00;;;;;;5113371;28;20510;-68
2023/05/31 11:06:00;;;;;;;1.73;1.17;;;24.10;1.00;;;;;;5112898;28;20590;-69
2023/05/31 11:08:28;;;;;;;2.03;1.30;;;24.10;1.00;;;;;;5113064;28;20458;-68
2023/05/31 11:11:26;;;;;;;1.30;0.90;;;24.20;1.00;;;;;;5113608;28;20447;-67
2023/05/31 11:13:57;;;;;;;2.50;1.30;;;24.40;1.00;;;;;;5113320;28;20451;-68
2023/05/31 11:16:24;;;;;;;2.10;0.90;;;24.50;1.00;;;;;;5111603;28;20448;-68
2023/05/31 11:19:02;;;;;;;1.87;1.20;;;24.50;1.00;;;;;;5113354;28;20456;-67
2023/05/31 11:21:52;;;;;;;1.60;1.30;;;24.30;1.00;;;;;;5112506;28;21004;-66
2023/05/31 11:24:31;;;;;;;1.70;1.07;;;24.20;1.00;;;;;;5112627;28;20915;-67
2023/05/31 11:26:59;;;;;;;1.60;1.00;;;24.40;1.00;;;;;;5113832;27;20455;-68
2023/05/31 11:29:26;;;;;;;1.40;1.10;;;24.50;1.00;;;;;;5113404;28;20493;-68
2023/05/31 11:32:01;;;;;;;1.53;1.20;;;24.50;1.00;;;;;;5115109;27;20436;-69
2023/05/31 11:34:29;;;;;;;1.77;1.17;;;24.60;1.00;;;;;;5113096;28;20469;-69
2023/05/31 11:37:01;;;;;;;2.30;1.37;;;24.90;1.00;;;;;;5113600;28;20440;-69
2023/05/31 11:39:29;;;;;;;2.55;1.40;;;24.90;1.00;;;;;;5113457;27;20427;-68
2023/05/31 11:41:58;;;;;;;1.93;1.20;;;25.00;1.00;;;;;;5113848;28;20205;-69
2023/05/31 11:44:30;;;;;;;2.60;1.47;;;24.90;1.00;;;;;;5113032;28;20945;-69
2023/05/31 11:47:05;;;;;;;1.60;1.10;;;24.90;1.00;;;;;;5113044;28;20554;-68
2023/05/31 11:49:33;;;;;;;1.70;1.17;;;24.90;1.00;;;;;;5113453;28;20453;-68
2023/05/31 11:52:00;;;;;;;2.50;1.37;;;24.80;1.00;;;;;;5113750;27;20440;-67
2023/05/31 11:54:30;;;;;;;2.00;1.00;;;25.10;1.00;;;;;;5123142;27;20781;-69
2023/05/31 11:57:06;;;;;;;1.40;0.90;;;24.90;1.00;;;;;;5116587;27;20435;-69
2023/05/31 11:59:33;;;;;;;2.77;1.20;;;25.00;1.00;;;;;;5114450;27;20437;-69
2023/05/31 12:02:02;;;;;;;2.37;1.37;;;24.90;1.00;;;;;;5113301;28;20442;-69
2023/05/31 12:04:30;;;;;;;2.33;1.47;;;25.10;1.00;;;;;;5112555;28;20440;-67
2023/05/31 12:06:57;;;;;;;2.07;1.40;;;25.10;1.00;;;;;;5112767;28;20495;-67
2023/05/31 12:09:25;;;;;;;1.40;1.20;;;25.30;1.00;;;;;;5112669;28;20758;-67
2023/05/31 12:11:53;;;;;;;3.13;1.67;;;25.60;1.00;;;;;;5112816;28;20501;-67
2023/05/31 12:14:20;;;;;;;1.83;1.27;;;25.40;1.00;;;;;;5112714;28;20436;-69
2023/05/31 12:16:49;;;;;;;2.87;1.13;;;25.50;1.00;;;;;;5112778;28;20447;-68
2023/05/31 12:19:16;;;;;;;2.60;1.20;;;25.10;1.00;;;;;;5112020;28;20440;-68
2023/05/31 12:21:43;;;;;;;2.20;1.00;;;25.30;1.00;;;;;;5112858;28;20440;-67
2023/05/31 12:24:13;;;;;;;2.03;1.10;;;25.30;1.00;;;;;;5112434;28;20444;-69
2023/05/31 12:26:40;;;;;;;1.80;1.07;;;25.40;1.00;;;;;;5112874;28;20479;-68
2023/05/31 12:29:09;;;;;;;1.80;1.00;;;25.60;1.00;;;;;;5111371;28;20428;-68
2023/05/31 12:31:37;;;;;;;2.30;1.00;;;25.60;1.00;;;;;;5100722;28;20440;-67
2023/05/31 12:34:08;;;;;;;2.13;1.27;;;25.70;1.00;;;;;;5114932;27;20791;-67
2023/05/31 12:36:39;;;;;;;1.40;1.10;;;25.80;1.00;;;;;;5112179;28;20452;-67
2023/05/31 12:39:11;;;;;;;1.47;1.20;;;26.00;1.00;;;;;;5112181;28;20523;-67
2023/05/31 12:41:38;;;;;;;1.60;1.20;;;26.00;1.00;;;;;;5112351;28;20440;-67
2023/05/31 12:44:08;;;;;;;1.50;0.90;;;25.90;1.00;;;;;;5112130;28;20440;-68
2023/05/31 12:46:39;;;;;;;2.50;1.10;;;25.60;1.00;;;;;;5112893;27;20892;-68
2023/05/31 12:49:20;;;;;;;1.67;0.90;;;25.70;1.00;;;;;;5111966;28;20443;-68
2023/05/31 12:51:47;;;;;;;2.70;1.27;;;25.60;1.00;;;;;;5110443;28;20468;-67
2023/05/31 12:54:14;;;;;;;2.17;1.33;;;25.70;1.00;;;;;;5110888;28;20955;-68
2023/05/31 12:56:41;;;;;;;3.13;1.07;;;25.70;1.00;;;;;;5111551;28;20458;-68
2023/05/31 12:59:10;;;;;;;2.43;1.10;;;25.80;1.00;;;;;;5111389;28;20444;-68
2023/05/31 13:01:38;;;;;;;2.20;1.00;;;25.90;1.00;;;;;;5110815;28;20448;-67
2023/05/31 13:04:05;;;;;;;2.07;0.83;;;25.80;1.00;;;;;;5111735;28;20458;-67
2023/05/31 13:06:31;;;;;;;1.57;1.17;;;25.90;1.00;;;;;;5110666;28;20536;-67
2023/05/31 13:08:58;;;;;;;1.70;1.30;;;26.10;1.00;;;;;;5111515;28;20463;-67
2023/05/31 13:11:26;;;;;;;1.50;1.03;;;26.00;1.00;;;;;;5110802;28;20801;-67
2023/05/31 13:13:53;;;;;;;1.77;1.20;;;26.00;1.00;;;;;;5112005;28;20443;-67
2023/05/31 13:16:22;;;;;;;1.83;1.10;;;26.00;1.00;;;;;;5111104;28;20535;-67
2023/05/31 13:18:48;;;;;;;3.27;1.37;;;26.40;1.00;;;;;;5111196;28;20984;-67
2023/05/31 13:21:15;;;;;;;1.50;1.30;;;26.40;1.00;;;;;;5110432;28;20483;-68
2023/05/31 13:23:42;;;;;;;1.80;1.10;;;26.20;1.00;;;;;;5111878;28;20747;-67
2023/05/31 13:26:09;;;;;;;1.30;0.90;;;26.40;1.00;;;;;;5111312;28;20447;-67
2023/05/31 13:28:36;;;;;;;2.47;1.30;;;26.40;1.00;;;;;;5111333;28;20454;-67
2023/05/31 13:31:03;;;;;;;2.30;1.20;;;26.30;1.00;;;;;;5110840;28;20448;-67
2023/05/31 13:33:33;;;;;;;1.63;0.87;;;26.20;1.00;;;;;;5106153;28;20455;-66
2023/05/31 13:36:00;;;;;;;1.50;1.00;;;26.50;1.00;;;;;;5110480;28;20444;-68
2023/05/31 13:38:27;;;;;;;1.60;1.10;;;26.60;1.00;;;;;;5110469;28;20816;-68
2023/05/31 13:40:54;;;;;;;2.27;1.30;;;26.80;1.00;;;;;;5110081;28;20800;-67
2023/05/31 13:43:23;;;;;;;2.10;1.37;;;26.80;1.00;;;;;;5109987;28;20448;-67
2023/05/31 13:45:50;;;;;;;2.23;0.83;;;26.70;1.00;;;;;;5109650;28;20432;-67
2023/05/31 13:48:17;;;;;;;1.60;1.10;;;;;;;;;;5108914;28;20491;-67
2023/05/31 13:50:46;;;;;;;1.60;1.20;;;;;;;;;;5110250;28;20436;-67
2023/05/31 13:53:13;;;;;;;1.50;1.00;;;;;;;;;;5110447;28;20440;-69
2023/05/31 13:55:40;;;;;;;1.40;0.90;;;;;;;;;;5111181;28;20444;-68
2023/05/31 13:58:07;;;;;;;3.30;1.50;;;;;;;;;;5110424;28;20501;-69
2023/05/31 14:00:35;;;;;;;3.30;2.27;;;;;;;;;;5109205;28;20465;-68
2023/05/31 14:03:02;;;;;;;2.77;1.37;;;;;;;;;;5110901;28;20518;-67
2023/05/31 14:05:29;;;;;;;2.13;0.97;;;;;;;;;;5110694;28;20447;-68
2023/05/31 14:07:59;;;;;;;1.43;1.07;;;;;;;;;;5110860;28;20471;-68
2023/05/31 14:10:26;;;;;;;1.93;1.00;;;;;;;;;;5110600;28;20486;-68